createdAt,value
2023-05-11T00:01:41.117Z,105.97
2023-05-11T00:04:09.652Z,107.23
2023-05-11T00:06:37.854Z,108.90
2023-05-11T00:09:06.713Z,109.10
2023-05-11T00:11:34.805Z,109.93
2023-05-11T00:14:03.247Z,106.30
2023-05-11T00:16:32.892Z,105.30
2023-05-11T00:19:01.163Z,105.67
2023-05-11T00:21:29.349Z,107.00
2023-05-11T00:23:57.547Z,107.30
2023-05-11T00:26:26.794Z,105.30
2023-05-11T00:28:55.008Z,103.87
2023-05-11T00:31:23.548Z,105.13
2023-05-11T00:33:54.510Z,105.10
2023-05-11T00:36:22.670Z,106.73
2023-05-11T00:38:50.781Z,106.23
2023-05-11T00:41:18.801Z,105.07
2023-05-11T00:43:46.954Z,104.30
2023-05-11T00:46:15.275Z,103.63
2023-05-11T00:48:44.292Z,104.30
2023-05-11T00:51:14.479Z,104.93
2023-05-11T00:53:42.693Z,104.17
2023-05-11T00:56:10.865Z,105.33
2023-05-11T00:58:39.003Z,105.60
2023-05-11T01:01:07.242Z,103.87
2023-05-11T01:03:36.504Z,104.33
2023-05-11T01:06:11.408Z,105.93
2023-05-11T01:08:46.521Z,104.67
2023-05-11T01:11:21.920Z,106.67
2023-05-11T01:13:53.840Z,104.50
2023-05-11T01:16:24.973Z,103.33
2023-05-11T01:18:59.532Z,106.63
2023-05-11T01:21:31.481Z,104.03
2023-05-11T01:24:29.863Z,107.83
2023-05-11T01:27:32.854Z,107.03
2023-05-11T01:30:27.100Z,108.83
2023-05-11T01:32:56.930Z,108.17
2023-05-11T01:35:27.845Z,111.77
2023-05-11T01:37:59.480Z,111.47
2023-05-11T01:40:33.481Z,111.80
2023-05-11T01:43:04.889Z,112.00
2023-05-11T01:45:37.944Z,112.33
2023-05-11T01:48:09.949Z,111.40
2023-05-11T01:50:39.803Z,112.67
2023-05-11T01:53:09.720Z,110.87
2023-05-11T01:55:38.981Z,111.07
2023-05-11T01:58:09.375Z,110.83
2023-05-11T02:00:39.943Z,112.13
2023-05-11T02:03:09.384Z,110.00
2023-05-11T02:05:40.058Z,112.63
2023-05-11T02:08:09.427Z,109.90
2023-05-11T02:10:39.541Z,115.30
2023-05-11T02:13:09.869Z,116.07
2023-05-11T02:15:41.487Z,114.57
2023-05-11T02:18:13.628Z,111.33
2023-05-11T02:20:44.537Z,114.70
2023-05-11T02:23:13.677Z,114.13
2023-05-11T02:25:43.051Z,113.50
2023-05-11T02:28:11.603Z,113.60
2023-05-11T02:30:46.736Z,119.73
2023-05-11T02:33:20.082Z,114.40
2023-05-11T02:35:48.650Z,119.00
2023-05-11T02:38:18.101Z,119.37
2023-05-11T02:40:49.114Z,116.10
2023-05-11T02:43:23.274Z,117.33
2023-05-11T02:45:58.392Z,114.43
2023-05-11T02:48:31.636Z,114.23
2023-05-11T02:51:02.997Z,114.63
2023-05-11T02:53:33.558Z,116.17
2023-05-11T02:56:02.352Z,116.73
2023-05-11T02:58:30.910Z,115.17
2023-05-11T03:01:01.152Z,114.87
2023-05-11T03:03:29.687Z,113.73
2023-05-11T03:05:57.832Z,117.50
2023-05-11T03:08:26.314Z,117.50
2023-05-11T03:10:55.050Z,114.23
2023-05-11T03:13:25.366Z,116.40
2023-05-11T03:15:54.124Z,113.53
2023-05-11T03:18:24.401Z,111.17
2023-05-11T03:20:53.042Z,109.20
2023-05-11T03:23:21.909Z,109.30
2023-05-11T03:25:50.453Z,109.43
2023-05-11T03:28:20.315Z,110.90
2023-05-11T03:30:50.406Z,111.17
2023-05-11T03:33:18.688Z,109.33
2023-05-11T03:35:50.858Z,109.43
2023-05-11T03:38:21.964Z,109.63
2023-05-11T03:40:52.407Z,110.93
2023-05-11T03:43:21.988Z,108.50
2023-05-11T03:45:53.434Z,112.13
2023-05-11T03:48:22.173Z,120.93
2023-05-11T03:50:52.232Z,114.03
2023-05-11T03:53:21.179Z,116.23
2023-05-11T03:55:50.093Z,118.80
2023-05-11T03:58:18.302Z,122.33
2023-05-11T04:00:47.679Z,120.43
2023-05-11T04:03:16.319Z,123.27
2023-05-11T04:05:44.557Z,121.40
2023-05-11T04:08:14.131Z,118.97
2023-05-11T04:10:42.257Z,114.27
2023-05-11T04:13:10.371Z,116.27
2023-05-11T04:15:38.497Z,114.73
2023-05-11T04:18:06.738Z,112.20
2023-05-11T04:20:34.824Z,111.63
2023-05-11T04:23:03.814Z,115.20
2023-05-11T04:25:33.248Z,116.30
2023-05-11T04:28:01.328Z,115.80
2023-05-11T04:30:29.342Z,115.63
2023-05-11T04:32:57.493Z,114.27
2023-05-11T04:35:26.052Z,117.37
2023-05-11T04:37:54.131Z,116.20
2023-05-11T04:40:22.310Z,115.77
2023-05-11T04:42:51.786Z,114.03
2023-05-11T04:45:20.283Z,116.03
2023-05-11T04:47:48.454Z,114.80
2023-05-11T04:50:17.150Z,119.97
2023-05-11T04:52:45.554Z,116.33
2023-05-11T04:55:13.642Z,120.93
2023-05-11T04:57:41.753Z,121.47
2023-05-11T05:00:12.376Z,119.27
2023-05-11T05:02:40.589Z,116.50
2023-05-11T05:05:09.697Z,118.23
2023-05-11T05:07:37.803Z,119.27
2023-05-11T05:10:08.978Z,117.63
2023-05-11T05:12:37.438Z,116.97
2023-05-11T05:15:06.668Z,118.60
2023-05-11T05:17:36.195Z,116.97
2023-05-11T05:20:04.609Z,122.80
2023-05-11T05:22:32.856Z,124.73
2023-05-11T05:25:01.062Z,129.63
2023-05-11T05:27:29.219Z,129.87
2023-05-11T05:29:57.331Z,133.10
2023-05-11T05:32:25.459Z,132.47
2023-05-11T05:34:55.016Z,131.63
2023-05-11T05:37:23.175Z,134.87
2023-05-11T05:39:51.297Z,131.13
2023-05-11T05:42:19.538Z,134.57
2023-05-11T05:44:47.988Z,139.00
2023-05-11T05:47:16.285Z,144.03
2023-05-11T05:49:44.441Z,142.33
2023-05-11T05:52:14.015Z,141.67
2023-05-11T05:54:42.085Z,142.37
2023-05-11T05:57:10.193Z,137.73
2023-05-11T05:59:38.358Z,136.60
2023-05-11T06:02:07.375Z,135.07
2023-05-11T06:04:36.526Z,137.43
2023-05-11T06:07:04.793Z,136.03
2023-05-11T06:09:34.200Z,137.63
2023-05-11T06:12:02.318Z,133.70
2023-05-11T06:14:31.665Z,134.00
2023-05-11T06:16:59.815Z,133.80
2023-05-11T06:19:27.903Z,132.70
2023-05-11T06:21:55.948Z,130.27
2023-05-11T06:24:24.033Z,127.37
2023-05-11T06:26:53.470Z,130.17
2023-05-11T06:29:22.329Z,127.47
2023-05-11T06:31:52.751Z,121.97
2023-05-11T06:34:21.143Z,119.53
2023-05-11T06:36:49.298Z,112.50
2023-05-11T06:39:18.523Z,104.90
2023-05-11T06:41:46.584Z,103.50
2023-05-11T06:44:15.983Z,100.93
2023-05-11T06:46:45.059Z,99.03
2023-05-11T06:49:13.190Z,98.13
2023-05-11T06:51:41.313Z,93.67
2023-05-11T06:54:10.557Z,88.43
2023-05-11T06:56:38.714Z,85.57
2023-05-11T06:59:06.834Z,82.70
2023-05-11T07:01:36.439Z,76.00
2023-05-11T07:04:04.889Z,71.30
2023-05-11T07:06:33.177Z,70.33
2023-05-11T07:09:01.342Z,61.40
2023-05-11T07:11:29.818Z,54.07
2023-05-11T07:13:57.865Z,47.03
2023-05-11T07:16:25.979Z,41.90
2023-05-11T07:18:55.610Z,36.83
2023-05-11T07:21:23.788Z,37.07
2023-05-11T07:23:52.528Z,36.00
2023-05-11T07:26:22.082Z,32.40
2023-05-11T07:28:50.174Z,33.47
2023-05-11T07:31:18.260Z,31.03
2023-05-11T07:33:46.386Z,27.33
2023-05-11T07:36:15.888Z,23.90
2023-05-11T07:38:43.997Z,24.40
2023-05-11T07:41:12.828Z,24.53
2023-05-11T07:43:41.600Z,25.60
2023-05-11T07:46:09.687Z,24.20
2023-05-11T07:48:37.749Z,23.40
2023-05-11T07:51:07.587Z,23.07
2023-05-11T07:53:37.338Z,22.37
2023-05-11T07:56:06.146Z,22.37
2023-05-11T07:58:34.281Z,21.27
2023-05-11T08:01:02.482Z,21.83
2023-05-11T08:03:30.588Z,21.90
2023-05-11T08:05:59.064Z,21.20
2023-05-11T08:08:27.253Z,20.40
2023-05-11T08:10:56.706Z,21.43
2023-05-11T08:13:25.896Z,21.97
2023-05-11T08:15:54.065Z,22.93
2023-05-11T08:18:22.366Z,21.97
2023-05-11T08:20:50.569Z,22.00
2023-05-11T08:23:18.777Z,22.03
2023-05-11T08:25:53.633Z,20.90
2023-05-11T08:28:23.630Z,22.03
2023-05-11T08:31:01.628Z,23.60
2023-05-11T08:36:00.844Z,23.20
2023-05-11T08:38:29.002Z,21.60
2023-05-11T08:40:57.032Z,21.83
2023-05-11T08:43:28.788Z,21.60
2023-05-11T08:46:01.799Z,19.60
2023-05-11T08:48:31.341Z,19.93
2023-05-11T08:51:00.821Z,21.13
2023-05-11T08:53:29.314Z,20.80
2023-05-11T08:56:00.070Z,20.47
2023-05-11T08:58:30.864Z,20.30
2023-05-11T09:01:00.006Z,21.00
2023-05-11T09:03:30.485Z,20.30
2023-05-11T09:05:59.694Z,20.30
2023-05-11T09:08:31.518Z,21.40
2023-05-11T09:11:00.381Z,20.70
2023-05-11T09:13:30.886Z,20.10
2023-05-11T09:15:58.863Z,21.47
2023-05-11T09:18:28.471Z,21.10
2023-05-11T09:20:56.655Z,21.53
2023-05-11T09:23:27.516Z,21.07
2023-05-11T09:25:56.072Z,20.67
2023-05-11T09:28:25.994Z,20.10
2023-05-11T09:30:55.568Z,20.10
2023-05-11T09:33:25.705Z,20.47
2023-05-11T09:35:54.322Z,19.87
2023-05-11T09:38:26.321Z,20.03
2023-05-11T09:40:56.168Z,19.13
2023-05-11T09:43:26.865Z,19.10
2023-05-11T09:45:58.408Z,18.80
2023-05-11T09:48:29.262Z,19.40
2023-05-11T09:51:03.805Z,19.57
2023-05-11T09:53:43.886Z,18.30
2023-05-11T09:56:12.707Z,18.07
2023-05-11T09:58:52.174Z,18.13
2023-05-11T10:01:32.392Z,19.23
2023-05-11T10:04:13.311Z,17.97
2023-05-11T10:06:52.908Z,18.93
2023-05-11T10:09:25.342Z,18.60
2023-05-11T10:11:54.838Z,17.43
2023-05-11T10:14:25.853Z,17.50
2023-05-11T10:16:58.567Z,17.80
2023-05-11T10:19:27.107Z,18.93
2023-05-11T10:21:57.627Z,19.63
2023-05-11T10:24:26.317Z,18.00
2023-05-11T10:26:55.009Z,18.30
2023-05-11T10:29:23.620Z,18.10
2023-05-11T10:31:52.829Z,18.80
2023-05-11T10:34:23.933Z,18.00
2023-05-11T10:36:53.858Z,18.23
2023-05-11T10:39:22.503Z,18.67
2023-05-11T10:42:06.346Z,19.40
2023-05-11T10:45:06.902Z,18.13
2023-05-11T10:48:10.836Z,18.57
2023-05-11T10:51:13.283Z,19.03
2023-05-11T10:53:57.815Z,19.03
2023-05-11T10:56:37.814Z,18.77
2023-05-11T10:59:25.806Z,18.93
2023-05-11T11:01:58.941Z,19.53
2023-05-11T11:04:42.076Z,18.23
2023-05-11T11:07:11.694Z,19.27
2023-05-11T11:09:57.307Z,18.20
2023-05-11T11:12:27.321Z,19.43
2023-05-11T11:14:56.968Z,18.90
2023-05-11T11:17:27.520Z,17.90
2023-05-11T11:19:57.409Z,17.70
2023-05-11T11:22:49.990Z,18.00
2023-05-11T11:25:54.889Z,18.13
2023-05-11T11:28:23.112Z,17.93
2023-05-11T11:31:25.401Z,18.33
2023-05-11T11:33:53.594Z,17.77
2023-05-11T11:36:55.000Z,17.93
2023-05-11T11:39:25.471Z,19.07
2023-05-11T11:42:01.387Z,17.60
2023-05-11T11:44:29.669Z,17.67
2023-05-11T11:47:14.672Z,17.33
2023-05-11T11:49:44.871Z,17.63
2023-05-11T11:52:13.863Z,18.73
2023-05-11T11:54:42.910Z,17.10
2023-05-11T11:57:44.125Z,18.17
2023-05-11T12:00:14.269Z,18.43
2023-05-11T12:02:44.847Z,17.07
2023-05-11T12:05:14.621Z,16.90
2023-05-11T12:07:45.948Z,16.63
2023-05-11T12:10:14.985Z,17.27
2023-05-11T12:12:46.180Z,18.43
2023-05-11T12:15:24.610Z,17.80
2023-05-11T12:17:54.110Z,18.43
2023-05-11T12:20:22.705Z,19.10
2023-05-11T12:22:51.447Z,18.83
2023-05-11T12:25:20.795Z,19.30
2023-05-11T12:27:50.837Z,19.80
2023-05-11T12:30:23.558Z,21.73
2023-05-11T12:35:25.507Z,25.13
2023-05-11T12:37:54.352Z,24.60
2023-05-11T12:40:22.485Z,27.77
2023-05-11T12:42:54.480Z,30.03
2023-05-11T12:45:24.708Z,34.00
2023-05-11T12:47:56.075Z,37.53
2023-05-11T12:50:24.259Z,44.30
2023-05-11T12:52:52.888Z,47.30
2023-05-11T12:55:30.690Z,54.20
2023-05-11T12:58:10.008Z,58.10
2023-05-11T13:00:38.484Z,61.40
2023-05-11T13:03:11.257Z,61.17
2023-05-11T13:05:39.929Z,62.50
2023-05-11T13:08:08.604Z,62.27
2023-05-11T13:10:36.804Z,63.47
2023-05-11T13:13:04.918Z,64.33
2023-05-11T13:15:33.547Z,64.47
2023-05-11T13:18:03.444Z,60.90
2023-05-11T13:20:34.303Z,61.27
2023-05-11T13:23:07.302Z,62.83
2023-05-11T13:25:51.588Z,66.80
2023-05-11T13:28:21.293Z,67.07
2023-05-11T13:30:51.211Z,66.20
2023-05-11T13:33:19.591Z,64.33
2023-05-11T13:35:49.073Z,61.23
2023-05-11T13:38:17.416Z,53.17
2023-05-11T13:40:45.794Z,48.47
2023-05-11T13:43:13.908Z,47.67
2023-05-11T13:45:42.065Z,49.20
2023-05-11T13:48:10.766Z,45.57
2023-05-11T13:50:39.011Z,47.43
2023-05-11T13:53:08.395Z,50.67
2023-05-11T13:55:38.057Z,51.83
2023-05-11T13:58:06.388Z,53.13
2023-05-11T14:00:35.209Z,55.60
2023-05-11T14:03:04.038Z,56.70
2023-05-11T14:05:32.509Z,59.30
2023-05-11T14:08:00.600Z,63.43
2023-05-11T14:10:30.080Z,62.30
2023-05-11T14:12:58.215Z,67.87
2023-05-11T14:15:26.266Z,72.37
2023-05-11T14:17:54.810Z,76.47
2023-05-11T14:20:23.107Z,78.53
2023-05-11T14:22:51.180Z,79.50
2023-05-11T14:25:19.519Z,78.60
2023-05-11T14:27:49.864Z,78.40
2023-05-11T14:30:17.923Z,78.27
2023-05-11T14:32:46.043Z,77.67
2023-05-11T14:35:14.510Z,79.67
2023-05-11T14:37:42.584Z,76.47
2023-05-11T14:40:11.105Z,70.53
2023-05-11T14:42:39.120Z,63.77
2023-05-11T14:45:09.831Z,62.13
2023-05-11T14:47:38.091Z,61.57
2023-05-11T14:50:07.319Z,61.27
2023-05-11T14:52:35.593Z,61.27
2023-05-11T14:55:03.701Z,62.90
2023-05-11T14:57:31.848Z,64.17
2023-05-11T15:00:00.668Z,66.20
2023-05-11T15:02:30.673Z,64.13
2023-05-11T15:04:58.815Z,61.10
2023-05-11T15:07:26.972Z,61.73
2023-05-11T15:09:55.981Z,66.43
2023-05-11T15:12:24.647Z,57.70
2023-05-11T15:14:52.790Z,54.00
2023-05-11T15:17:20.989Z,50.23
2023-05-11T15:19:50.447Z,51.37
2023-05-11T15:22:19.212Z,45.47
2023-05-11T15:24:47.475Z,43.80
2023-05-11T15:27:16.008Z,43.50
2023-05-11T15:29:45.266Z,40.07
2023-05-11T15:32:15.262Z,37.10
2023-05-11T15:34:55.537Z,36.83
2023-05-11T15:37:30.790Z,38.50
2023-05-11T15:39:58.873Z,37.80
2023-05-11T15:42:27.048Z,36.07
2023-05-11T15:44:55.145Z,35.37
2023-05-11T15:47:23.466Z,36.00
2023-05-11T15:49:52.631Z,36.83
2023-05-11T15:52:20.824Z,34.47
2023-05-11T15:54:50.257Z,32.70
2023-05-11T15:57:18.378Z,33.00
2023-05-11T15:59:47.663Z,36.23
2023-05-11T16:02:16.026Z,36.20
2023-05-11T16:04:44.109Z,30.43
2023-05-11T16:07:12.160Z,32.33
2023-05-11T16:09:40.370Z,31.03
2023-05-11T16:12:10.477Z,30.77
2023-05-11T16:14:38.540Z,31.93
2023-05-11T16:17:07.953Z,29.63
2023-05-11T16:19:36.024Z,29.30
2023-05-11T16:22:04.147Z,30.87
2023-05-11T16:24:34.330Z,32.10
2023-05-11T16:27:02.982Z,28.90
2023-05-11T16:29:32.478Z,26.90
2023-05-11T16:32:00.946Z,25.07
2023-05-11T16:34:29.129Z,24.77
2023-05-11T16:36:58.970Z,26.30
2023-05-11T16:39:27.775Z,25.73
2023-05-11T16:41:55.891Z,25.83
2023-05-11T16:44:24.605Z,27.50
2023-05-11T16:46:54.242Z,27.73
2023-05-11T16:49:22.457Z,25.67
2023-05-11T16:51:51.649Z,25.33
2023-05-11T16:54:20.907Z,24.30
2023-05-11T16:56:49.109Z,24.47
2023-05-11T16:59:17.170Z,26.33
2023-05-11T17:01:46.044Z,26.00
2023-05-11T17:04:15.794Z,25.70
2023-05-11T17:06:44.179Z,26.27
2023-05-11T17:09:12.227Z,25.97
2023-05-11T17:11:40.291Z,26.40
2023-05-11T17:14:08.349Z,25.30
2023-05-11T17:16:36.578Z,26.10
2023-05-11T17:19:05.236Z,22.90
2023-05-11T17:21:34.867Z,19.80
2023-05-11T17:24:02.982Z,19.17
2023-05-11T17:26:39.560Z,18.63
2023-05-11T17:29:15.803Z,19.37
2023-05-11T17:31:46.346Z,20.30
2023-05-11T17:34:14.923Z,20.13
2023-05-11T17:36:44.609Z,21.80
2023-05-11T17:39:13.174Z,22.97
2023-05-11T17:41:41.320Z,24.10
2023-05-11T17:44:09.528Z,25.37
2023-05-11T17:46:38.284Z,28.03
2023-05-11T17:49:06.866Z,29.93
2023-05-11T17:51:35.102Z,30.90
2023-05-11T17:54:04.840Z,32.17
2023-05-11T17:56:32.945Z,32.30
2023-05-11T17:59:01.099Z,38.20
2023-05-11T18:01:29.244Z,39.83
2023-05-11T18:03:59.238Z,41.57
2023-05-11T18:06:28.375Z,44.60
2023-05-11T18:08:56.677Z,50.20
2023-05-11T18:11:27.112Z,50.87
2023-05-11T18:13:55.348Z,51.93
2023-05-11T18:16:23.504Z,55.30
2023-05-11T18:18:51.696Z,56.90
2023-05-11T18:21:19.865Z,60.67
2023-05-11T18:23:47.971Z,63.90
2023-05-11T18:26:17.373Z,68.87
2023-05-11T18:28:47.078Z,69.30
2023-05-11T18:31:17.483Z,69.87
2023-05-11T18:33:46.697Z,72.70
2023-05-11T18:36:15.774Z,74.97
2023-05-11T18:38:45.201Z,77.77
2023-05-11T18:41:13.277Z,74.00
2023-05-11T18:43:42.974Z,74.77
2023-05-11T18:46:12.636Z,74.67
2023-05-11T18:48:40.655Z,73.17
2023-05-11T18:51:08.726Z,76.20
2023-05-11T18:53:36.852Z,79.60
2023-05-11T18:56:05.467Z,79.67
2023-05-11T18:58:33.775Z,78.47
2023-05-11T19:01:01.927Z,80.13
2023-05-11T19:03:32.351Z,80.27
2023-05-11T19:06:01.075Z,78.57
2023-05-11T19:08:29.452Z,80.40
2023-05-11T19:10:57.701Z,82.67
2023-05-11T19:13:25.997Z,82.47
2023-05-11T19:15:54.071Z,84.13
2023-05-11T19:18:22.197Z,84.50
2023-05-11T19:20:51.719Z,85.10
2023-05-11T19:23:20.157Z,84.47
2023-05-11T19:25:48.276Z,88.15
2023-05-11T19:28:16.418Z,89.03
2023-05-11T19:30:44.486Z,86.53
2023-05-11T19:33:12.841Z,86.90
2023-05-11T19:35:41.205Z,87.70
2023-05-11T19:38:10.621Z,86.33
2023-05-11T19:40:45.425Z,85.17
2023-05-11T19:43:14.559Z,87.77
2023-05-11T19:45:43.628Z,87.10
2023-05-11T19:48:12.068Z,89.33
2023-05-11T19:50:40.302Z,90.33
2023-05-11T19:53:09.795Z,91.30
2023-05-11T19:55:37.858Z,90.80
2023-05-11T19:58:06.869Z,90.93
2023-05-11T20:00:35.118Z,92.17
2023-05-11T20:03:03.378Z,90.30
2023-05-11T20:05:31.568Z,91.70
2023-05-11T20:08:02.063Z,89.60
2023-05-11T20:10:31.534Z,89.13
2023-05-11T20:12:59.661Z,89.03
2023-05-11T20:15:27.652Z,90.63
2023-05-11T20:17:55.790Z,87.70
2023-05-11T20:20:24.164Z,91.47
2023-05-11T20:22:52.361Z,91.20
2023-05-11T20:25:20.474Z,95.47
2023-05-11T20:27:50.172Z,98.90
2023-05-11T20:30:18.683Z,99.67
2023-05-11T20:35:19.376Z,97.07
2023-05-11T20:37:47.881Z,99.17
2023-05-11T20:40:16.145Z,99.30
2023-05-11T20:42:44.251Z,101.17
2023-05-11T20:45:13.845Z,101.60
2023-05-11T20:47:41.996Z,104.40
2023-05-11T20:50:10.915Z,102.77
2023-05-11T20:52:39.350Z,107.10
2023-05-11T20:55:08.311Z,101.87
2023-05-11T20:57:36.437Z,98.73
2023-05-11T21:00:07.411Z,99.80
2023-05-11T21:02:37.019Z,101.03
2023-05-11T21:05:05.362Z,97.57
2023-05-11T21:07:33.476Z,95.43
2023-05-11T21:10:01.777Z,93.90
2023-05-11T21:12:29.811Z,95.33
2023-05-11T21:14:57.907Z,93.90
2023-05-11T21:17:26.026Z,94.57
2023-05-11T21:19:55.500Z,96.47
2023-05-11T21:22:23.562Z,98.47
2023-05-11T21:24:51.610Z,100.40
2023-05-11T21:27:20.419Z,100.93
2023-05-11T21:29:49.178Z,101.40
2023-05-11T21:32:17.253Z,97.50
2023-05-11T21:34:45.312Z,100.43
2023-05-11T21:37:15.954Z,101.87
2023-05-11T21:39:44.060Z,98.33
2023-05-11T21:42:12.108Z,105.10
2023-05-11T21:44:40.179Z,100.53
2023-05-11T21:47:08.571Z,104.47
2023-05-11T21:49:36.833Z,104.47
2023-05-11T21:52:05.850Z,95.53
2023-05-11T21:54:35.466Z,98.63
2023-05-11T21:57:03.727Z,91.67
2023-05-11T21:59:31.788Z,94.37
2023-05-11T22:01:59.937Z,99.97
2023-05-11T22:04:28.064Z,98.13
2023-05-11T22:06:59.659Z,96.57
2023-05-11T22:09:30.007Z,96.70
2023-05-11T22:11:59.455Z,101.50
2023-05-11T22:14:27.608Z,102.17
2023-05-11T22:16:55.700Z,98.70
2023-05-11T22:19:23.833Z,101.23
2023-05-11T22:21:51.951Z,98.10
2023-05-11T22:24:21.257Z,95.03
2023-05-11T22:26:49.389Z,99.13
2023-05-11T22:29:18.810Z,99.50
2023-05-11T22:31:46.910Z,98.47
2023-05-11T22:34:15.088Z,100.53
2023-05-11T22:36:43.269Z,102.20
2023-05-11T22:39:12.247Z,100.90
2023-05-11T22:41:40.327Z,101.73
2023-05-11T22:44:08.956Z,104.87
2023-05-11T22:46:38.356Z,103.37
2023-05-11T22:49:06.469Z,101.77
2023-05-11T22:51:34.509Z,100.20
2023-05-11T22:54:03.431Z,100.17
2023-05-11T22:56:32.119Z,102.37
2023-05-11T22:59:00.347Z,100.70
2023-05-11T23:01:28.829Z,100.10
2023-05-11T23:03:58.575Z,99.93
2023-05-11T23:06:26.740Z,100.87
2023-05-11T23:08:54.805Z,102.20
2023-05-11T23:11:23.116Z,99.90
2023-05-11T23:13:51.481Z,102.27
2023-05-11T23:16:19.597Z,103.17
2023-05-11T23:18:47.813Z,104.40
2023-05-11T23:21:17.895Z,102.70
2023-05-11T23:23:46.342Z,103.47
2023-05-11T23:26:14.870Z,102.60
2023-05-11T23:28:43.184Z,101.50
2023-05-11T23:31:11.513Z,103.03
2023-05-11T23:33:40.311Z,102.87
2023-05-11T23:36:09.609Z,103.47
2023-05-11T23:38:39.100Z,102.93
2023-05-11T23:41:07.244Z,102.03
2023-05-11T23:43:35.322Z,104.13
2023-05-11T23:46:03.469Z,102.53
2023-05-11T23:48:31.519Z,101.93
2023-05-11T23:50:59.704Z,101.60
2023-05-11T23:53:27.788Z,100.00
2023-05-11T23:55:57.200Z,99.97
2023-05-11T23:58:25.384Z,101.00
